sensor_id;sensor_type;location;lat;lon;timestamp;P1;durP1;ratioP1;P2;durP2;ratioP2
1593;SDS011;790;47.000;16.084;2023-07-24T00:00:45;8.10;;;6.45;;
1593;SDS011;790;47.000;16.084;2023-07-24T00:03:12;7.72;;;6.93;;
1593;SDS011;790;47.000;16.084;2023-07-24T00:05:39;8.68;;;6.82;;
1593;SDS011;790;47.000;16.084;2023-07-24T00:10:42;8.80;;;6.88;;
1593;SDS011;790;47.000;16.084;2023-07-24T00:13:10;7.78;;;7.05;;
1593;SDS011;790;47.000;16.084;2023-07-24T00:15:38;11.63;;;7.43;;
1593;SDS011;790;47.000;16.084;2023-07-24T00:18:05;8.02;;;7.03;;
1593;SDS011;790;47.000;16.084;2023-07-24T00:20:32;8.55;;;7.35;;
1593;SDS011;790;47.000;16.084;2023-07-24T00:23:00;7.70;;;6.65;;
1593;SDS011;790;47.000;16.084;2023-07-24T00:25:27;8.10;;;7.35;;
1593;SDS011;790;47.000;16.084;2023-07-24T00:30:39;9.02;;;6.95;;
1593;SDS011;790;47.000;16.084;2023-07-24T00:33:06;10.27;;;6.45;;
1593;SDS011;790;47.000;16.084;2023-07-24T00:35:35;7.55;;;6.85;;
1593;SDS011;790;47.000;16.084;2023-07-24T00:38:03;7.35;;;6.65;;
1593;SDS011;790;47.000;16.084;2023-07-24T00:40:30;8.98;;;6.78;;
1593;SDS011;790;47.000;16.084;2023-07-24T00:42:58;10.82;;;6.60;;
1593;SDS011;790;47.000;16.084;2023-07-24T00:45:27;9.65;;;6.30;;
1593;SDS011;790;47.000;16.084;2023-07-24T00:47:55;14.30;;;6.25;;
1593;SDS011;790;47.000;16.084;2023-07-24T00:50:22;9.02;;;6.07;;
1593;SDS011;790;47.000;16.084;2023-07-24T00:52:51;7.30;;;5.88;;
1593;SDS011;790;47.000;16.084;2023-07-24T00:55:18;8.45;;;6.43;;
1593;SDS011;790;47.000;16.084;2023-07-24T00:57:45;7.32;;;6.63;;
1593;SDS011;790;47.000;16.084;2023-07-24T01:00:14;11.68;;;6.72;;
1593;SDS011;790;47.000;16.084;2023-07-24T01:02:44;6.80;;;6.30;;
1593;SDS011;790;47.000;16.084;2023-07-24T01:05:12;7.28;;;6.57;;
1593;SDS011;790;47.000;16.084;2023-07-24T01:07:40;8.52;;;6.18;;
1593;SDS011;790;47.000;16.084;2023-07-24T01:10:08;9.18;;;5.85;;
1593;SDS011;790;47.000;16.084;2023-07-24T01:12:36;7.78;;;6.18;;
1593;SDS011;790;47.000;16.084;2023-07-24T01:15:11;7.15;;;5.60;;
1593;SDS011;790;47.000;16.084;2023-07-24T01:17:45;6.85;;;5.93;;
1593;SDS011;790;47.000;16.084;2023-07-24T01:20:17;10.48;;;6.20;;
1593;SDS011;790;47.000;16.084;2023-07-24T01:22:48;6.25;;;5.72;;
1593;SDS011;790;47.000;16.084;2023-07-24T01:25:35;5.65;;;5.20;;
1593;SDS011;790;47.000;16.084;2023-07-24T01:28:09;6.32;;;5.55;;
1593;SDS011;790;47.000;16.084;2023-07-24T01:30:36;8.00;;;6.15;;
1593;SDS011;790;47.000;16.084;2023-07-24T01:33:03;9.15;;;6.70;;
1593;SDS011;790;47.000;16.084;2023-07-24T01:35:30;6.80;;;6.20;;
1593;SDS011;790;47.000;16.084;2023-07-24T01:37:59;8.20;;;7.25;;
1593;SDS011;790;47.000;16.084;2023-07-24T01:40:26;7.82;;;6.57;;
1593;SDS011;790;47.000;16.084;2023-07-24T01:42:53;7.95;;;6.72;;
1593;SDS011;790;47.000;16.084;2023-07-24T01:45:23;7.40;;;6.80;;
1593;SDS011;790;47.000;16.084;2023-07-24T01:47:50;7.25;;;6.22;;
1593;SDS011;790;47.000;16.084;2023-07-24T01:50:17;8.32;;;6.40;;
1593;SDS011;790;47.000;16.084;2023-07-24T01:52:45;10.25;;;6.78;;
1593;SDS011;790;47.000;16.084;2023-07-24T01:55:14;6.85;;;6.00;;
1593;SDS011;790;47.000;16.084;2023-07-24T01:57:44;6.72;;;6.13;;
1593;SDS011;790;47.000;16.084;2023-07-24T02:00:11;7.47;;;6.88;;
1593;SDS011;790;47.000;16.084;2023-07-24T02:02:40;7.05;;;6.38;;
1593;SDS011;790;47.000;16.084;2023-07-24T02:05:08;7.40;;;6.28;;
1593;SDS011;790;47.000;16.084;2023-07-24T02:07:36;6.97;;;6.25;;
1593;SDS011;790;47.000;16.084;2023-07-24T02:10:04;6.85;;;5.95;;
1593;SDS011;790;47.000;16.084;2023-07-24T02:12:34;6.35;;;5.32;;
1593;SDS011;790;47.000;16.084;2023-07-24T02:15:01;5.93;;;5.53;;
1593;SDS011;790;47.000;16.084;2023-07-24T02:17:29;10.00;;;5.78;;
1593;SDS011;790;47.000;16.084;2023-07-24T02:19:57;6.72;;;6.03;;
1593;SDS011;790;47.000;16.084;2023-07-24T02:22:24;7.90;;;5.85;;
1593;SDS011;790;47.000;16.084;2023-07-24T02:24:52;6.80;;;6.20;;
1593;SDS011;790;47.000;16.084;2023-07-24T02:27:25;6.75;;;6.25;;
1593;SDS011;790;47.000;16.084;2023-07-24T02:29:54;7.38;;;6.72;;
1593;SDS011;790;47.000;16.084;2023-07-24T02:32:21;7.40;;;6.28;;
1593;SDS011;790;47.000;16.084;2023-07-24T02:34:48;8.55;;;6.70;;
1593;SDS011;790;47.000;16.084;2023-07-24T02:37:20;8.23;;;6.95;;
1593;SDS011;790;47.000;16.084;2023-07-24T02:39:47;7.30;;;6.50;;
1593;SDS011;790;47.000;16.084;2023-07-24T02:42:14;7.38;;;6.53;;
1593;SDS011;790;47.000;16.084;2023-07-24T02:44:44;7.20;;;6.28;;
1593;SDS011;790;47.000;16.084;2023-07-24T02:47:11;7.05;;;6.35;;
1593;SDS011;790;47.000;16.084;2023-07-24T02:49:39;7.60;;;5.90;;
1593;SDS011;790;47.000;16.084;2023-07-24T02:52:09;8.75;;;6.55;;
1593;SDS011;790;47.000;16.084;2023-07-24T02:54:38;7.13;;;6.43;;
1593;SDS011;790;47.000;16.084;2023-07-24T02:57:17;6.75;;;6.13;;
1593;SDS011;790;47.000;16.084;2023-07-24T02:59:46;6.38;;;5.80;;
1593;SDS011;790;47.000;16.084;2023-07-24T03:02:15;6.95;;;6.28;;
1593;SDS011;790;47.000;16.084;2023-07-24T03:07:16;6.80;;;6.20;;
1593;SDS011;790;47.000;16.084;2023-07-24T03:09:45;6.68;;;5.95;;
1593;SDS011;790;47.000;16.084;2023-07-24T03:12:13;7.25;;;6.00;;
1593;SDS011;790;47.000;16.084;2023-07-24T03:14:47;7.13;;;6.43;;
1593;SDS011;790;47.000;16.084;2023-07-24T03:17:14;6.30;;;5.70;;
1593;SDS011;790;47.000;16.084;2023-07-24T03:19:41;6.50;;;5.90;;
1593;SDS011;790;47.000;16.084;2023-07-24T03:22:09;6.53;;;6.00;;
1593;SDS011;790;47.000;16.084;2023-07-24T03:24:39;6.78;;;6.28;;
1593;SDS011;790;47.000;16.084;2023-07-24T03:27:10;7.43;;;5.93;;
1593;SDS011;790;47.000;16.084;2023-07-24T03:29:53;9.93;;;6.22;;
1593;SDS011;790;47.000;16.084;2023-07-24T03:32:21;7.35;;;6.75;;
1593;SDS011;790;47.000;16.084;2023-07-24T03:34:48;7.20;;;6.40;;
1593;SDS011;790;47.000;16.084;2023-07-24T03:37:17;6.57;;;5.65;;
1593;SDS011;790;47.000;16.084;2023-07-24T03:39:44;8.75;;;6.47;;
1593;SDS011;790;47.000;16.084;2023-07-24T03:42:24;7.97;;;7.28;;
1593;SDS011;790;47.000;16.084;2023-07-24T03:44:51;8.50;;;6.60;;
1593;SDS011;790;47.000;16.084;2023-07-24T03:47:19;7.15;;;6.45;;
1593;SDS011;790;47.000;16.084;2023-07-24T03:49:46;7.97;;;6.55;;
1593;SDS011;790;47.000;16.084;2023-07-24T03:52:14;9.18;;;6.40;;
1593;SDS011;790;47.000;16.084;2023-07-24T03:54:42;7.47;;;6.72;;
1593;SDS011;790;47.000;16.084;2023-07-24T03:57:09;8.63;;;6.95;;
1593;SDS011;790;47.000;16.084;2023-07-24T03:59:47;8.50;;;7.60;;
1593;SDS011;790;47.000;16.084;2023-07-24T04:02:14;15.05;;;8.15;;
1593;SDS011;790;47.000;16.084;2023-07-24T04:04:42;15.75;;;8.43;;
1593;SDS011;790;47.000;16.084;2023-07-24T04:07:09;17.33;;;8.88;;
1593;SDS011;790;47.000;16.084;2023-07-24T04:09:36;18.02;;;9.23;;
1593;SDS011;790;47.000;16.084;2023-07-24T04:12:04;26.25;;;9.45;;
1593;SDS011;790;47.000;16.084;2023-07-24T04:14:32;18.83;;;9.68;;
1593;SDS011;790;47.000;16.084;2023-07-24T04:17:02;10.10;;;8.98;;
1593;SDS011;790;47.000;16.084;2023-07-24T04:19:30;8.98;;;7.78;;
1593;SDS011;790;47.000;16.084;2023-07-24T04:21:57;8.68;;;7.03;;
1593;SDS011;790;47.000;16.084;2023-07-24T04:24:24;7.65;;;7.03;;
1593;SDS011;790;47.000;16.084;2023-07-24T04:26:54;8.25;;;7.53;;
1593;SDS011;790;47.000;16.084;2023-07-24T04:29:21;7.72;;;7.00;;
1593;SDS011;790;47.000;16.084;2023-07-24T04:31:52;7.18;;;6.47;;
1593;SDS011;790;47.000;16.084;2023-07-24T04:34:20;9.18;;;6.80;;
1593;SDS011;790;47.000;16.084;2023-07-24T04:36:48;7.63;;;6.80;;
1593;SDS011;790;47.000;16.084;2023-07-24T04:39:15;8.05;;;7.28;;
1593;SDS011;790;47.000;16.084;2023-07-24T04:41:42;9.18;;;7.15;;
1593;SDS011;790;47.000;16.084;2023-07-24T04:44:09;8.10;;;7.20;;
1593;SDS011;790;47.000;16.084;2023-07-24T04:46:36;8.30;;;7.45;;
1593;SDS011;790;47.000;16.084;2023-07-24T04:49:03;8.20;;;7.50;;
1593;SDS011;790;47.000;16.084;2023-07-24T04:51:32;8.02;;;7.22;;
1593;SDS011;790;47.000;16.084;2023-07-24T04:53:59;11.00;;;8.95;;
1593;SDS011;790;47.000;16.084;2023-07-24T04:56:26;12.02;;;10.57;;
1593;SDS011;790;47.000;16.084;2023-07-24T04:58:54;9.90;;;8.85;;
1593;SDS011;790;47.000;16.084;2023-07-24T05:01:21;10.75;;;9.32;;
1593;SDS011;790;47.000;16.084;2023-07-24T05:03:49;10.48;;;9.43;;
1593;SDS011;790;47.000;16.084;2023-07-24T05:08:50;13.30;;;11.77;;
1593;SDS011;790;47.000;16.084;2023-07-24T05:11:18;15.70;;;13.38;;
1593;SDS011;790;47.000;16.084;2023-07-24T05:13:46;22.25;;;17.52;;
1593;SDS011;790;47.000;16.084;2023-07-24T05:16:13;14.38;;;12.82;;
1593;SDS011;790;47.000;16.084;2023-07-24T05:18:40;12.98;;;11.52;;
1593;SDS011;790;47.000;16.084;2023-07-24T05:21:07;12.27;;;11.07;;
1593;SDS011;790;47.000;16.084;2023-07-24T05:23:34;14.52;;;12.23;;
1593;SDS011;790;47.000;16.084;2023-07-24T05:26:03;16.15;;;13.52;;
1593;SDS011;790;47.000;16.084;2023-07-24T05:28:31;14.30;;;10.35;;
1593;SDS011;790;47.000;16.084;2023-07-24T05:30:59;11.57;;;10.40;;
1593;SDS011;790;47.000;16.084;2023-07-24T05:33:28;12.27;;;10.98;;
1593;SDS011;790;47.000;16.084;2023-07-24T05:35:57;11.07;;;9.98;;
1593;SDS011;790;47.000;16.084;2023-07-24T05:38:24;12.98;;;11.32;;
1593;SDS011;790;47.000;16.084;2023-07-24T05:40:55;14.65;;;10.95;;
1593;SDS011;790;47.000;16.084;2023-07-24T05:43:25;13.35;;;10.93;;
1593;SDS011;790;47.000;16.084;2023-07-24T05:45:59;11.90;;;10.68;;
1593;SDS011;790;47.000;16.084;2023-07-24T05:48:30;12.60;;;9.90;;
1593;SDS011;790;47.000;16.084;2023-07-24T05:51:06;11.07;;;9.95;;
1593;SDS011;790;47.000;16.084;2023-07-24T05:53:33;15.68;;;10.15;;
1593;SDS011;790;47.000;16.084;2023-07-24T05:56:43;12.30;;;9.98;;
1593;SDS011;790;47.000;16.084;2023-07-24T05:59:12;9.13;;;8.32;;
1593;SDS011;790;47.000;16.084;2023-07-24T06:01:40;13.05;;;8.65;;
1593;SDS011;790;47.000;16.084;2023-07-24T06:04:07;9.98;;;8.98;;
1593;SDS011;790;47.000;16.084;2023-07-24T06:06:34;9.02;;;8.10;;
1593;SDS011;790;47.000;16.084;2023-07-24T06:09:01;10.93;;;9.80;;
1593;SDS011;790;47.000;16.084;2023-07-24T06:11:29;9.63;;;8.63;;
1593;SDS011;790;47.000;16.084;2023-07-24T06:13:56;9.77;;;8.40;;
1593;SDS011;790;47.000;16.084;2023-07-24T06:16:25;9.10;;;8.23;;
1593;SDS011;790;47.000;16.084;2023-07-24T06:18:54;9.80;;;8.50;;
1593;SDS011;790;47.000;16.084;2023-07-24T06:21:23;9.07;;;8.38;;
1593;SDS011;790;47.000;16.084;2023-07-24T06:23:51;9.57;;;8.52;;
1593;SDS011;790;47.000;16.084;2023-07-24T06:26:19;8.80;;;8.00;;
1593;SDS011;790;47.000;16.084;2023-07-24T06:28:47;8.98;;;8.07;;
1593;SDS011;790;47.000;16.084;2023-07-24T06:31:14;8.30;;;7.50;;
1593;SDS011;790;47.000;16.084;2023-07-24T06:33:44;9.88;;;7.70;;
1593;SDS011;790;47.000;16.084;2023-07-24T06:36:11;8.35;;;7.68;;
1593;SDS011;790;47.000;16.084;2023-07-24T06:38:38;9.05;;;8.27;;
1593;SDS011;790;47.000;16.084;2023-07-24T06:41:13;8.98;;;8.07;;
1593;SDS011;790;47.000;16.084;2023-07-24T06:43:41;8.38;;;7.43;;
1593;SDS011;790;47.000;16.084;2023-07-24T06:46:11;8.43;;;7.63;;
1593;SDS011;790;47.000;16.084;2023-07-24T06:48:39;10.15;;;7.93;;
1593;SDS011;790;47.000;16.084;2023-07-24T06:51:15;8.18;;;7.38;;
1593;SDS011;790;47.000;16.084;2023-07-24T06:53:43;8.50;;;7.55;;
1593;SDS011;790;47.000;16.084;2023-07-24T06:56:10;8.25;;;7.55;;
1593;SDS011;790;47.000;16.084;2023-07-24T06:58:39;8.82;;;7.93;;
1593;SDS011;790;47.000;16.084;2023-07-24T07:01:06;8.63;;;7.78;;
1593;SDS011;790;47.000;16.084;2023-07-24T07:03:34;9.82;;;7.18;;
1593;SDS011;790;47.000;16.084;2023-07-24T07:06:03;8.65;;;7.85;;
1593;SDS011;790;47.000;16.084;2023-07-24T07:08:33;9.48;;;7.85;;
1593;SDS011;790;47.000;16.084;2023-07-24T07:11:02;8.45;;;7.57;;
1593;SDS011;790;47.000;16.084;2023-07-24T07:13:29;8.10;;;7.35;;
1593;SDS011;790;47.000;16.084;2023-07-24T07:15:57;9.52;;;7.88;;
1593;SDS011;790;47.000;16.084;2023-07-24T07:18:24;7.88;;;7.28;;
1593;SDS011;790;47.000;16.084;2023-07-24T07:20:52;8.45;;;7.55;;
1593;SDS011;790;47.000;16.084;2023-07-24T07:23:20;8.93;;;8.05;;
1593;SDS011;790;47.000;16.084;2023-07-24T07:25:50;7.97;;;7.25;;
1593;SDS011;790;47.000;16.084;2023-07-24T07:28:17;8.52;;;7.70;;
1593;SDS011;790;47.000;16.084;2023-07-24T07:30:45;7.88;;;7.07;;
1593;SDS011;790;47.000;16.084;2023-07-24T07:33:12;9.55;;;7.68;;
1593;SDS011;790;47.000;16.084;2023-07-24T07:35:39;8.82;;;7.13;;
1593;SDS011;790;47.000;16.084;2023-07-24T07:38:07;8.38;;;7.40;;
1593;SDS011;790;47.000;16.084;2023-07-24T07:40:36;8.60;;;7.70;;
1593;SDS011;790;47.000;16.084;2023-07-24T07:43:06;8.30;;;7.60;;
1593;SDS011;790;47.000;16.084;2023-07-24T07:45:34;9.05;;;8.18;;
1593;SDS011;790;47.000;16.084;2023-07-24T07:48:02;9.05;;;8.18;;
1593;SDS011;790;47.000;16.084;2023-07-24T07:50:30;8.50;;;7.57;;
1593;SDS011;790;47.000;16.084;2023-07-24T07:52:57;8.52;;;7.72;;
1593;SDS011;790;47.000;16.084;2023-07-24T07:55:27;11.23;;;8.20;;
1593;SDS011;790;47.000;16.084;2023-07-24T07:57:54;8.68;;;7.88;;
1593;SDS011;790;47.000;16.084;2023-07-24T08:00:23;8.82;;;7.80;;
1593;SDS011;790;47.000;16.084;2023-07-24T08:02:50;9.00;;;8.20;;
1593;SDS011;790;47.000;16.084;2023-07-24T08:05:17;11.23;;;7.97;;
1593;SDS011;790;47.000;16.084;2023-07-24T08:07:44;10.50;;;8.05;;
1593;SDS011;790;47.000;16.084;2023-07-24T08:10:12;10.50;;;8.50;;
1593;SDS011;790;47.000;16.084;2023-07-24T08:12:40;9.93;;;8.48;;
1593;SDS011;790;47.000;16.084;2023-07-24T08:18:01;9.52;;;8.52;;
1593;SDS011;790;47.000;16.084;2023-07-24T08:20:29;9.30;;;8.48;;
1593;SDS011;790;47.000;16.084;2023-07-24T08:22:56;8.80;;;7.90;;
1593;SDS011;790;47.000;16.084;2023-07-24T08:25:38;11.13;;;8.15;;
1593;SDS011;790;47.000;16.084;2023-07-24T08:28:22;9.55;;;8.25;;
1593;SDS011;790;47.000;16.084;2023-07-24T08:30:57;8.55;;;7.75;;
1593;SDS011;790;47.000;16.084;2023-07-24T08:33:26;9.23;;;8.30;;
1593;SDS011;790;47.000;16.084;2023-07-24T08:35:59;8.85;;;8.05;;
1593;SDS011;790;47.000;16.084;2023-07-24T08:38:41;8.85;;;7.68;;
1593;SDS011;790;47.000;16.084;2023-07-24T08:41:12;9.40;;;8.30;;
1593;SDS011;790;47.000;16.084;2023-07-24T08:43:41;8.60;;;7.70;;
1593;SDS011;790;47.000;16.084;2023-07-24T08:46:13;9.43;;;8.43;;
1593;SDS011;790;47.000;16.084;2023-07-24T08:48:41;10.38;;;8.23;;
1593;SDS011;790;47.000;16.084;2023-07-24T08:51:45;9.30;;;8.40;;
1593;SDS011;790;47.000;16.084;2023-07-24T08:54:26;10.98;;;8.52;;
1593;SDS011;790;47.000;16.084;2023-07-24T08:56:53;8.95;;;8.15;;
1593;SDS011;790;47.000;16.084;2023-07-24T08:59:20;10.07;;;9.07;;
1593;SDS011;790;47.000;16.084;2023-07-24T09:01:49;9.85;;;8.85;;
1593;SDS011;790;47.000;16.084;2023-07-24T09:04:18;12.40;;;8.60;;
1593;SDS011;790;47.000;16.084;2023-07-24T09:06:45;9.23;;;8.32;;
1593;SDS011;790;47.000;16.084;2023-07-24T09:09:12;14.80;;;8.70;;
1593;SDS011;790;47.000;16.084;2023-07-24T09:11:47;11.95;;;8.98;;
1593;SDS011;790;47.000;16.084;2023-07-24T09:14:22;9.27;;;8.38;;
1593;SDS011;790;47.000;16.084;2023-07-24T09:17:00;52.22;;;39.88;;
1593;SDS011;790;47.000;16.084;2023-07-24T09:19:28;12.30;;;9.82;;
1593;SDS011;790;47.000;16.084;2023-07-24T09:21:55;9.85;;;8.95;;
1593;SDS011;790;47.000;16.084;2023-07-24T09:24:49;9.55;;;8.70;;
1593;SDS011;790;47.000;16.084;2023-07-24T09:27:18;9.52;;;8.65;;
1593;SDS011;790;47.000;16.084;2023-07-24T09:29:45;13.90;;;8.98;;
1593;SDS011;790;47.000;16.084;2023-07-24T09:34:58;12.43;;;9.98;;
1593;SDS011;790;47.000;16.084;2023-07-24T09:37:25;9.40;;;8.50;;
1593;SDS011;790;47.000;16.084;2023-07-24T09:39:54;9.57;;;8.68;;
1593;SDS011;790;47.000;16.084;2023-07-24T09:42:31;10.32;;;9.10;;
1593;SDS011;790;47.000;16.084;2023-07-24T09:44:59;9.50;;;8.48;;
1593;SDS011;790;47.000;16.084;2023-07-24T09:47:27;10.75;;;9.65;;
1593;SDS011;790;47.000;16.084;2023-07-24T09:49:56;10.05;;;9.05;;
1593;SDS011;790;47.000;16.084;2023-07-24T09:52:25;10.38;;;9.48;;
1593;SDS011;790;47.000;16.084;2023-07-24T09:55:02;10.50;;;9.32;;
1593;SDS011;790;47.000;16.084;2023-07-24T09:57:37;10.93;;;9.82;;
1593;SDS011;790;47.000;16.084;2023-07-24T10:00:05;12.35;;;9.57;;
1593;SDS011;790;47.000;16.084;2023-07-24T10:02:36;10.98;;;9.80;;
1593;SDS011;790;47.000;16.084;2023-07-24T10:05:03;12.88;;;9.73;;
1593;SDS011;790;47.000;16.084;2023-07-24T10:07:32;11.43;;;9.88;;
1593;SDS011;790;47.000;16.084;2023-07-24T10:10:01;12.20;;;10.93;;
1593;SDS011;790;47.000;16.084;2023-07-24T10:12:30;13.77;;;9.27;;
1593;SDS011;790;47.000;16.084;2023-07-24T10:14:58;12.75;;;10.38;;
1593;SDS011;790;47.000;16.084;2023-07-24T10:17:34;12.82;;;9.90;;
1593;SDS011;790;47.000;16.084;2023-07-24T10:20:05;12.10;;;9.32;;
1593;SDS011;790;47.000;16.084;2023-07-24T10:22:35;12.15;;;10.45;;
1593;SDS011;790;47.000;16.084;2023-07-24T10:25:06;14.05;;;9.77;;
1593;SDS011;790;47.000;16.084;2023-07-24T10:27:35;11.65;;;9.82;;
1593;SDS011;790;47.000;16.084;2023-07-24T10:30:03;11.43;;;9.98;;
1593;SDS011;790;47.000;16.084;2023-07-24T10:32:44;10.85;;;9.85;;
1593;SDS011;790;47.000;16.084;2023-07-24T10:35:14;10.73;;;9.63;;
1593;SDS011;790;47.000;16.084;2023-07-24T10:37:43;13.45;;;10.10;;
1593;SDS011;790;47.000;16.084;2023-07-24T10:40:18;13.23;;;10.13;;
1593;SDS011;790;47.000;16.084;2023-07-24T10:42:46;12.65;;;11.27;;
1593;SDS011;790;47.000;16.084;2023-07-24T10:45:24;12.63;;;10.95;;
1593;SDS011;790;47.000;16.084;2023-07-24T10:47:51;12.32;;;11.13;;
1593;SDS011;790;47.000;16.084;2023-07-24T10:50:20;11.63;;;10.23;;
1593;SDS011;790;47.000;16.084;2023-07-24T10:52:48;11.45;;;9.48;;
1593;SDS011;790;47.000;16.084;2023-07-24T10:55:15;12.30;;;10.50;;
1593;SDS011;790;47.000;16.084;2023-07-24T10:57:44;11.05;;;10.02;;
1593;SDS011;790;47.000;16.084;2023-07-24T11:00:11;12.48;;;11.18;;
1593;SDS011;790;47.000;16.084;2023-07-24T11:02:39;12.13;;;10.45;;
1593;SDS011;790;47.000;16.084;2023-07-24T11:05:07;12.32;;;11.13;;
1593;SDS011;790;47.000;16.084;2023-07-24T11:07:36;12.35;;;10.77;;
1593;SDS011;790;47.000;16.084;2023-07-24T11:10:13;11.68;;;10.27;;
1593;SDS011;790;47.000;16.084;2023-07-24T11:12:41;12.55;;;11.10;;
1593;SDS011;790;47.000;16.084;2023-07-24T11:15:09;11.25;;;10.05;;
1593;SDS011;790;47.000;16.084;2023-07-24T11:17:37;11.55;;;10.45;;
1593;SDS011;790;47.000;16.084;2023-07-24T11:20:07;10.93;;;9.82;;
1593;SDS011;790;47.000;16.084;2023-07-24T11:22:39;11.52;;;9.73;;
1593;SDS011;790;47.000;16.084;2023-07-24T11:25:09;11.27;;;9.68;;
1593;SDS011;790;47.000;16.084;2023-07-24T11:27:39;12.15;;;10.85;;
1593;SDS011;790;47.000;16.084;2023-07-24T11:30:10;11.50;;;10.00;;
1593;SDS011;790;47.000;16.084;2023-07-24T11:32:39;11.93;;;10.65;;
1593;SDS011;790;47.000;16.084;2023-07-24T11:35:08;10.65;;;9.57;;
1593;SDS011;790;47.000;16.084;2023-07-24T11:37:40;15.05;;;10.98;;
1593;SDS011;790;47.000;16.084;2023-07-24T11:40:09;10.90;;;9.93;;
1593;SDS011;790;47.000;16.084;2023-07-24T11:42:39;12.95;;;11.15;;
1593;SDS011;790;47.000;16.084;2023-07-24T11:45:10;11.30;;;10.20;;
1593;SDS011;790;47.000;16.084;2023-07-24T11:47:44;11.75;;;10.55;;
1593;SDS011;790;47.000;16.084;2023-07-24T11:50:12;13.15;;;11.25;;
1593;SDS011;790;47.000;16.084;2023-07-24T11:52:42;12.95;;;11.43;;
1593;SDS011;790;47.000;16.084;2023-07-24T11:55:10;14.43;;;11.27;;
1593;SDS011;790;47.000;16.084;2023-07-24T11:57:41;13.68;;;11.50;;
1593;SDS011;790;47.000;16.084;2023-07-24T12:00:17;12.90;;;11.05;;
1593;SDS011;790;47.000;16.084;2023-07-24T12:02:46;13.38;;;12.05;;
1593;SDS011;790;47.000;16.084;2023-07-24T12:05:14;13.68;;;12.25;;
1593;SDS011;790;47.000;16.084;2023-07-24T12:07:43;13.38;;;11.88;;
1593;SDS011;790;47.000;16.084;2023-07-24T12:10:12;12.63;;;11.18;;
1593;SDS011;790;47.000;16.084;2023-07-24T12:12:52;14.02;;;12.48;;
1593;SDS011;790;47.000;16.084;2023-07-24T12:15:19;14.20;;;11.75;;
1593;SDS011;790;47.000;16.084;2023-07-24T12:17:47;13.18;;;11.70;;
1593;SDS011;790;47.000;16.084;2023-07-24T12:20:14;13.00;;;11.75;;
1593;SDS011;790;47.000;16.084;2023-07-24T12:22:47;13.45;;;12.05;;
1593;SDS011;790;47.000;16.084;2023-07-24T12:25:14;14.68;;;11.90;;
1593;SDS011;790;47.000;16.084;2023-07-24T12:27:43;14.57;;;12.88;;
1593;SDS011;790;47.000;16.084;2023-07-24T12:30:10;15.40;;;12.38;;
1593;SDS011;790;47.000;16.084;2023-07-24T12:32:38;17.38;;;12.68;;
1593;SDS011;790;47.000;16.084;2023-07-24T12:35:06;18.10;;;12.82;;
1593;SDS011;790;47.000;16.084;2023-07-24T12:37:34;13.82;;;12.38;;
1593;SDS011;790;47.000;16.084;2023-07-24T12:40:03;16.63;;;12.38;;
1593;SDS011;790;47.000;16.084;2023-07-24T12:42:34;22.23;;;13.38;;
1593;SDS011;790;47.000;16.084;2023-07-24T12:45:01;15.27;;;13.15;;
1593;SDS011;790;47.000;16.084;2023-07-24T12:47:29;15.80;;;12.30;;
1593;SDS011;790;47.000;16.084;2023-07-24T12:49:57;15.98;;;13.38;;
1593;SDS011;790;47.000;16.084;2023-07-24T12:52:25;17.92;;;13.48;;
1593;SDS011;790;47.000;16.084;2023-07-24T12:54:52;18.55;;;12.88;;
1593;SDS011;790;47.000;16.084;2023-07-24T12:57:22;18.63;;;13.20;;
1593;SDS011;790;47.000;16.084;2023-07-24T12:59:51;15.80;;;13.30;;
1593;SDS011;790;47.000;16.084;2023-07-24T13:02:19;14.52;;;12.95;;
1593;SDS011;790;47.000;16.084;2023-07-24T13:04:53;13.80;;;12.40;;
1593;SDS011;790;47.000;16.084;2023-07-24T13:07:24;16.75;;;12.80;;
1593;SDS011;790;47.000;16.084;2023-07-24T13:09:54;15.95;;;12.70;;
1593;SDS011;790;47.000;16.084;2023-07-24T13:12:36;16.20;;;12.90;;
1593;SDS011;790;47.000;16.084;2023-07-24T13:15:06;14.60;;;13.00;;
1593;SDS011;790;47.000;16.084;2023-07-24T13:17:34;15.00;;;12.73;;
1593;SDS011;790;47.000;16.084;2023-07-24T13:20:02;15.45;;;12.38;;
1593;SDS011;790;47.000;16.084;2023-07-24T13:22:33;14.20;;;12.73;;
1593;SDS011;790;47.000;16.084;2023-07-24T13:25:00;14.80;;;13.02;;
1593;SDS011;790;47.000;16.084;2023-07-24T13:27:29;15.15;;;12.98;;
1593;SDS011;790;47.000;16.084;2023-07-24T13:29:58;15.52;;;13.50;;
1593;SDS011;790;47.000;16.084;2023-07-24T13:32:25;15.63;;;13.27;;
1593;SDS011;790;47.000;16.084;2023-07-24T13:35:04;17.25;;;13.55;;
1593;SDS011;790;47.000;16.084;2023-07-24T13:37:31;27.73;;;16.83;;
1593;SDS011;790;47.000;16.084;2023-07-24T13:39:59;15.68;;;13.57;;
1593;SDS011;790;47.000;16.084;2023-07-24T13:42:28;21.30;;;17.23;;
1593;SDS011;790;47.000;16.084;2023-07-24T13:44:55;25.02;;;19.88;;
1593;SDS011;790;47.000;16.084;2023-07-24T13:47:23;20.70;;;17.20;;
1593;SDS011;790;47.000;16.084;2023-07-24T13:49:51;21.10;;;17.27;;
1593;SDS011;790;47.000;16.084;2023-07-24T13:52:18;23.50;;;17.00;;
1593;SDS011;790;47.000;16.084;2023-07-24T13:54:46;17.05;;;14.60;;
1593;SDS011;790;47.000;16.084;2023-07-24T13:57:13;16.55;;;14.05;;
1593;SDS011;790;47.000;16.084;2023-07-24T13:59:40;17.27;;;14.50;;
1593;SDS011;790;47.000;16.084;2023-07-24T14:02:08;15.07;;;12.63;;
1593;SDS011;790;47.000;16.084;2023-07-24T14:04:41;16.25;;;13.55;;
1593;SDS011;790;47.000;16.084;2023-07-24T14:07:09;17.70;;;13.60;;
1593;SDS011;790;47.000;16.084;2023-07-24T14:09:41;15.52;;;12.82;;
1593;SDS011;790;47.000;16.084;2023-07-24T14:12:18;18.48;;;13.65;;
1593;SDS011;790;47.000;16.084;2023-07-24T14:14:45;14.55;;;13.05;;
1593;SDS011;790;47.000;16.084;2023-07-24T14:17:21;17.00;;;13.70;;
1593;SDS011;790;47.000;16.084;2023-07-24T14:19:54;29.98;;;21.95;;
1593;SDS011;790;47.000;16.084;2023-07-24T14:22:25;41.55;;;30.58;;
1593;SDS011;790;47.000;16.084;2023-07-24T14:25:07;34.35;;;26.48;;
1593;SDS011;790;47.000;16.084;2023-07-24T14:27:35;29.52;;;26.33;;
1593;SDS011;790;47.000;16.084;2023-07-24T14:30:16;35.10;;;29.20;;
1593;SDS011;790;47.000;16.084;2023-07-24T14:33:01;17.67;;;14.57;;
1593;SDS011;790;47.000;16.084;2023-07-24T14:38:40;14.93;;;13.30;;
1593;SDS011;790;47.000;16.084;2023-07-24T14:41:28;16.52;;;14.93;;
1593;SDS011;790;47.000;16.084;2023-07-24T14:44:19;15.82;;;13.95;;
1593;SDS011;790;47.000;16.084;2023-07-24T14:47:00;18.35;;;12.27;;
1593;SDS011;790;47.000;16.084;2023-07-24T14:49:42;14.57;;;12.35;;
1593;SDS011;790;47.000;16.084;2023-07-24T14:52:21;15.00;;;11.65;;
1593;SDS011;790;47.000;16.084;2023-07-24T14:55:14;16.42;;;12.60;;
1593;SDS011;790;47.000;16.084;2023-07-24T14:57:55;15.18;;;11.43;;
1593;SDS011;790;47.000;16.084;2023-07-24T15:00:24;15.95;;;14.35;;
1593;SDS011;790;47.000;16.084;2023-07-24T15:02:53;18.40;;;13.98;;
1593;SDS011;790;47.000;16.084;2023-07-24T15:05:44;18.65;;;16.52;;
1593;SDS011;790;47.000;16.084;2023-07-24T15:08:28;25.55;;;22.88;;
1593;SDS011;790;47.000;16.084;2023-07-24T15:11:13;27.83;;;22.52;;
1593;SDS011;790;47.000;16.084;2023-07-24T15:13:51;14.35;;;12.05;;
1593;SDS011;790;47.000;16.084;2023-07-24T15:16:33;14.02;;;11.00;;
1593;SDS011;790;47.000;16.084;2023-07-24T15:19:00;12.82;;;10.88;;
1593;SDS011;790;47.000;16.084;2023-07-24T15:21:27;15.00;;;11.35;;
1593;SDS011;790;47.000;16.084;2023-07-24T15:24:07;13.98;;;11.60;;
1593;SDS011;790;47.000;16.084;2023-07-24T15:26:49;11.98;;;10.68;;
1593;SDS011;790;47.000;16.084;2023-07-24T15:29:20;14.32;;;11.20;;
1593;SDS011;790;47.000;16.084;2023-07-24T15:31:48;16.13;;;11.40;;
1593;SDS011;790;47.000;16.084;2023-07-24T15:34:16;13.75;;;11.05;;
1593;SDS011;790;47.000;16.084;2023-07-24T15:36:43;12.82;;;11.43;;
1593;SDS011;790;47.000;16.084;2023-07-24T15:39:13;13.07;;;10.77;;